Time;durP1;ratioP1;P1;durP2;ratioP2;P2;SDS_P1;SDS_P2;PMS_P1;PMS_P2;Temp;Humidity;BMP_temperature;BMP_pressure;BME280_temperature;BME280_humidity;BME280_pressure;Samples;Min_cycle;Max_cycle;Signal;HPM_P1;HPM_P2
2023/01/31 00:01:28;;;;;;;31.05;13.80;;;;;;;3.09;71.88;101558.06;5005779;28;20065;-66
2023/01/31 00:03:59;;;;;;;31.80;13.10;;;;;;;3.11;70.73;101557.31;4998122;28;20049;-66
2023/01/31 00:06:28;;;;;;;28.88;13.07;;;;;;;3.16;71.87;101561.03;5006659;28;20021;-66
2023/01/31 00:08:55;;;;;;;31.20;12.83;;;;;;;3.21;71.62;101555.13;4999324;28;20533;-66
2023/01/31 00:11:23;;;;;;;29.58;13.07;;;;;;;3.26;71.88;101558.88;5000365;28;20019;-66
2023/01/31 00:13:48;;;;;;;27.08;11.73;;;;;;;3.28;71.09;101550.28;4998111;28;20022;-66
2023/01/31 00:16:15;;;;;;;26.87;11.50;;;;;;;3.30;71.11;101547.78;4998019;28;20113;-66
2023/01/31 00:18:41;;;;;;;29.48;12.25;;;;;;;3.31;71.33;101549.56;4996404;28;20482;-66
2023/01/31 00:21:16;;;;;;;25.65;10.93;;;;;;;3.34;71.47;101554.00;4997580;28;20081;-66
2023/01/31 00:23:43;;;;;;;26.05;11.02;;;;;;;3.37;71.96;101552.44;4997938;28;20052;-66
2023/01/31 00:26:20;;;;;;;24.27;11.23;;;;;;;3.37;70.47;101551.53;4997797;28;20026;-66
2023/01/31 00:28:47;;;;;;;26.92;11.85;;;;;;;3.40;71.57;101544.75;4997977;28;20037;-66
2023/01/31 00:31:15;;;;;;;27.13;10.38;;;;;;;3.43;71.33;101533.59;4997298;28;20098;-66
2023/01/31 00:33:42;;;;;;;25.05;10.77;;;;;;;3.44;71.55;101536.25;4997596;28;20101;-66
2023/01/31 00:36:11;;;;;;;27.60;11.02;;;;;;;3.47;71.57;101534.63;4997351;28;20026;-66
2023/01/31 00:38:36;;;;;;;22.90;10.20;;;;;;;3.47;71.27;101527.72;4997901;28;20080;-66
2023/01/31 00:41:03;;;;;;;27.85;10.48;;;;;;;3.49;71.48;101528.66;4998693;28;20030;-66
2023/01/31 00:43:30;;;;;;;28.00;10.93;;;;;;;3.51;71.39;101527.03;4997618;28;20026;-66
2023/01/31 00:45:55;;;;;;;25.27;9.97;;;;;;;3.51;71.48;101524.41;4997417;28;20072;-66
2023/01/31 00:48:20;;;;;;;24.90;10.18;;;;;;;3.54;71.46;101531.50;4997334;28;20030;-66
2023/01/31 00:50:46;;;;;;;22.97;9.63;;;;;;;3.54;71.50;101521.94;4997148;28;20394;-66
2023/01/31 00:53:11;;;;;;;23.23;9.90;;;;;;;3.54;71.26;101523.69;4997372;28;20022;-66
2023/01/31 00:55:37;;;;;;;23.10;9.20;;;;;;;3.54;70.96;101511.53;5012424;28;20049;-66
2023/01/31 00:58:03;;;;;;;20.93;9.67;;;;;;;3.56;71.52;101524.63;4997565;28;20266;-66
2023/01/31 01:00:28;;;;;;;24.10;9.80;;;;;;;3.59;71.10;101524.78;4997334;28;20483;-66
2023/01/31 01:02:54;;;;;;;20.77;9.55;;;;;;;3.61;71.08;101524.81;4997250;28;20037;-66
2023/01/31 01:05:19;;;;;;;26.83;10.60;;;;;;;3.62;71.57;101522.31;4996861;28;20518;-66
2023/01/31 01:07:45;;;;;;;28.30;10.20;;;;;;;3.65;71.19;101519.81;4996346;28;20376;-66
2023/01/31 01:10:10;;;;;;;24.30;9.45;;;;;;;3.67;71.76;101518.19;4997126;28;20118;-66
2023/01/31 01:12:36;;;;;;;22.27;9.73;;;;;;;3.68;70.78;101512.16;4997235;28;20462;-66
2023/01/31 01:15:01;;;;;;;23.87;9.63;;;;;;;3.68;71.41;101499.13;4997076;28;20030;-66
2023/01/31 01:17:27;;;;;;;23.48;10.15;;;;;;;3.70;71.28;101497.47;4997058;28;20395;-66
2023/01/31 01:19:53;;;;;;;21.05;9.80;;;;;;;3.72;70.96;101502.75;4996780;28;20062;-66
2023/01/31 01:22:19;;;;;;;21.90;9.60;;;;;;;3.72;71.28;101501.03;4995889;28;20121;-66
2023/01/31 01:24:45;;;;;;;24.40;9.27;;;;;;;3.72;71.19;101498.44;4997154;28;20100;-66
2023/01/31 01:27:12;;;;;;;23.88;9.57;;;;;;;3.72;71.32;101500.16;4997300;28;20099;-66
2023/01/31 01:29:38;;;;;;;20.33;8.68;;;;;;;3.71;70.86;101503.59;4997062;28;20026;-66
2023/01/31 01:32:04;;;;;;;24.75;9.98;;;;;;;3.71;71.51;101499.25;4996955;28;20590;-66
2023/01/31 01:34:30;;;;;;;21.83;9.57;;;;;;;3.74;71.47;101498.50;4996681;28;20487;-66
2023/01/31 01:36:56;;;;;;;20.03;8.90;;;;;;;3.75;71.00;101499.41;4995846;28;20053;-66
2023/01/31 01:39:22;;;;;;;23.60;9.60;;;;;;;3.73;70.97;101495.00;4996968;28;20026;-66
2023/01/31 01:41:47;;;;;;;22.53;9.43;;;;;;;3.75;71.25;101499.41;4998751;28;20312;-66
2023/01/31 01:44:45;;;;;;;21.13;8.90;;;;;;;3.71;70.15;101496.66;4996726;28;20026;-66
2023/01/31 01:47:15;;;;;;;21.20;8.63;;;;;;;3.73;70.93;101492.38;4996668;28;20041;-66
2023/01/31 01:49:41;;;;;;;21.48;9.13;;;;;;;3.76;71.20;101495.97;4996593;28;20030;-66
2023/01/31 01:52:10;;;;;;;25.00;9.57;;;;;;;3.76;71.03;101496.84;4997554;28;20065;-66
2023/01/31 01:54:44;;;;;;;19.80;9.27;;;;;;;3.77;71.08;101492.56;5015603;28;20034;-66
2023/01/31 01:57:13;;;;;;;19.98;8.98;;;;;;;3.78;71.53;101500.41;5000454;28;20030;-66
2023/01/31 01:59:44;;;;;;;21.97;8.97;;;;;;;3.79;71.65;101496.13;5000617;28;20109;-66
2023/01/31 02:02:10;;;;;;;20.50;8.73;;;;;;;3.81;71.28;101494.47;4999001;28;20507;-66
2023/01/31 02:04:39;;;;;;;26.00;9.07;;;;;;;3.83;71.64;101493.69;4999442;28;20094;-66
2023/01/31 02:07:07;;;;;;;21.80;8.93;;;;;;;3.84;71.54;101484.16;4998040;28;20062;-66
2023/01/31 02:10:08;;;;;;;21.40;9.25;;;;;;;3.84;70.39;101491.97;5000148;28;20065;-66
2023/01/31 02:12:34;;;;;;;22.67;9.10;;;;;;;3.87;71.44;101489.50;5000196;28;20037;-66
2023/01/31 02:15:00;;;;;;;21.00;8.65;;;;;;;3.87;71.57;101498.22;5000129;28;20372;-66
2023/01/31 02:17:26;;;;;;;23.30;9.20;;;;;;;3.89;71.25;101493.06;4999943;28;20053;-66
2023/01/31 02:20:06;;;;;;;20.90;9.10;;;;;;;3.91;70.23;101493.16;4999640;28;20026;-66
2023/01/31 02:22:52;;;;;;;20.35;8.73;;;;;;;3.90;70.54;101487.03;5000131;28;20030;-66
2023/01/31 02:25:39;;;;;;;20.10;8.23;;;;;;;3.91;69.86;101496.63;4999957;28;20446;-66
2023/01/31 02:28:34;;;;;;;21.08;9.13;;;;;;;3.92;70.91;101487.97;4999847;28;20042;-66
2023/01/31 02:31:08;;;;;;;20.83;8.97;;;;;;;3.94;71.14;101480.25;4998079;28;20049;-66
2023/01/31 02:34:03;;;;;;;22.40;8.20;;;;;;;3.89;70.30;101477.44;5007838;28;20100;-66
2023/01/31 02:36:31;;;;;;;21.40;8.95;;;;;;;3.87;71.31;101474.78;5014687;28;20061;-66
2023/01/31 02:39:26;;;;;;;22.25;8.65;;;;;;;3.80;71.01;101472.72;4998531;28;20089;-66
2023/01/31 02:42:10;;;;;;;20.25;8.63;;;;;;;3.77;71.15;101476.91;5000912;28;20023;-66
2023/01/31 02:44:58;;;;;;;21.67;8.73;;;;;;;3.70;71.28;101479.22;4998279;28;20121;-66
2023/01/31 02:47:23;;;;;;;21.13;9.20;;;;;;;3.66;71.54;101477.31;4998033;28;20030;-66
2023/01/31 02:49:59;;;;;;;23.83;9.10;;;;;;;3.64;71.42;101486.78;4999423;28;20458;-66
2023/01/31 02:52:33;;;;;;;21.48;8.48;;;;;;;3.63;71.67;101479.78;4999431;28;20053;-66
2023/01/31 02:57:57;;;;;;;21.65;8.98;;;;;;;3.59;71.54;101472.69;4999742;28;20073;-66
2023/01/31 03:00:24;;;;;;;20.52;8.57;;;;;;;3.56;71.53;101467.34;4999050;28;20026;-66
2023/01/31 03:02:50;;;;;;;21.90;9.67;;;;;;;3.55;72.14;101475.97;4999171;28;20122;-66
2023/01/31 03:05:17;;;;;;;22.15;9.40;;;;;;;3.54;71.69;101479.41;4997657;28;20026;-66
2023/01/31 03:07:50;;;;;;;23.63;10.07;;;;;;;3.53;71.41;101477.63;4999186;28;20041;-66
2023/01/31 03:10:42;;;;;;;21.23;9.13;;;;;;;3.51;70.88;101476.66;4998996;28;20029;-66
2023/01/31 03:13:08;;;;;;;21.40;8.80;;;;;;;3.50;71.76;101473.16;4999132;28;20517;-66
2023/01/31 03:18:37;;;;;;;21.42;8.60;;;;;;;3.38;72.15;101476.09;4998914;28;20509;-66
2023/01/31 03:21:20;;;;;;;21.88;9.25;;;;;;;3.28;71.13;101473.91;4998685;28;20029;-66
2023/01/31 03:23:50;;;;;;;23.40;9.05;;;;;;;3.19;71.64;101470.88;4999075;28;20029;-66
2023/01/31 03:26:19;;;;;;;23.03;9.57;;;;;;;3.09;71.85;101470.47;4998815;28;20030;-66
2023/01/31 03:28:46;;;;;;;21.95;9.23;;;;;;;3.01;71.77;101477.00;4999002;28;20079;-66
2023/01/31 03:31:20;;;;;;;26.63;10.60;;;;;;;2.93;71.38;101478.38;4998353;28;20058;-66
2023/01/31 03:33:51;;;;;;;23.70;9.38;;;;;;;2.84;71.44;101474.53;4998774;28;20081;-66
2023/01/31 03:36:20;;;;;;;23.02;9.93;;;;;;;2.77;71.50;101466.34;4998423;28;20034;-66
2023/01/31 03:39:02;;;;;;;22.80;10.20;;;;;;;2.68;70.95;101472.00;4998671;28;20026;-66
2023/01/31 03:41:38;;;;;;;22.58;10.30;;;;;;;2.60;71.33;101462.97;5011075;28;20022;-66
2023/01/31 03:44:24;;;;;;;22.58;10.27;;;;;;;2.50;70.83;101470.31;4998386;28;20031;-66
2023/01/31 03:46:54;;;;;;;24.85;10.88;;;;;;;2.45;71.95;101479.59;4998605;28;20085;-66
2023/01/31 03:49:23;;;;;;;24.58;10.75;;;;;;;2.39;72.17;101480.19;4997777;28;20109;-66
2023/01/31 03:51:53;;;;;;;23.97;10.30;;;;;;;2.33;72.21;101479.88;4998535;28;20025;-66
2023/01/31 03:54:28;;;;;;;25.08;10.88;;;;;;;2.28;71.55;101482.25;4998331;28;20068;-66
2023/01/31 03:57:02;;;;;;;26.48;11.25;;;;;;;2.23;72.45;101480.25;4997485;28;20026;-66
2023/01/31 03:59:34;;;;;;;26.90;11.75;;;;;;;2.21;72.73;101477.56;4998368;28;20116;-66
2023/01/31 04:02:03;;;;;;;28.73;12.15;;;;;;;2.17;72.19;101478.25;4998029;28;20057;-66
2023/01/31 04:04:41;;;;;;;29.03;11.53;;;;;;;2.13;71.91;101486.69;4998053;28;20058;-66
2023/01/31 04:07:07;;;;;;;25.70;11.02;;;;;;;2.10;72.18;101491.75;4997892;28;20034;-66
2023/01/31 04:09:33;;;;;;;28.08;10.85;;;;;;;2.08;72.25;101496.84;4996671;28;20054;-66
2023/01/31 04:12:00;;;;;;;23.98;11.50;;;;;;;2.10;72.59;101496.94;4997996;28;20022;-66
2023/01/31 04:14:26;;;;;;;29.33;11.47;;;;;;;2.18;72.91;101505.13;4997951;28;20553;-66
2023/01/31 04:16:52;;;;;;;25.67;11.52;;;;;;;2.27;73.06;101501.25;4997539;28;20022;-66
2023/01/31 04:19:17;;;;;;;28.00;12.43;;;;;;;2.36;73.56;101503.44;4997560;28;20110;-66
2023/01/31 04:21:42;;;;;;;26.23;12.10;;;;;;;2.46;73.10;101502.19;4997705;28;20084;-66
2023/01/31 04:24:08;;;;;;;26.67;11.47;;;;;;;2.56;73.02;101507.03;4998019;28;20026;-66
2023/01/31 04:26:35;;;;;;;25.05;11.30;;;;;;;2.64;73.15;101507.38;4997811;28;20853;-65
2023/01/31 04:29:00;;;;;;;23.73;11.90;;;;;;;2.73;73.18;101509.53;4996561;28;20031;-65
2023/01/31 04:31:26;;;;;;;25.55;11.30;;;;;;;2.79;72.90;101507.25;4997388;28;20027;-66
2023/01/31 04:33:51;;;;;;;23.73;11.67;;;;;;;2.86;72.92;101511.91;4997693;28;20042;-66
2023/01/31 04:36:16;;;;;;;27.53;11.77;;;;;;;2.93;73.17;101510.50;4997434;28;20026;-66
2023/01/31 04:38:42;;;;;;;20.67;9.97;;;;;;;2.98;72.84;101513.31;4997758;28;20037;-66
2023/01/31 04:41:07;;;;;;;27.10;12.10;;;;;;;3.05;72.73;101511.88;4998784;28;20022;-66
2023/01/31 04:43:33;;;;;;;24.87;11.47;;;;;;;3.08;73.17;101515.53;4997659;28;20033;-66
2023/01/31 04:45:58;;;;;;;25.47;11.23;;;;;;;3.13;72.60;101503.63;4997360;28;20029;-66
2023/01/31 04:48:24;;;;;;;27.48;11.70;;;;;;;3.18;72.61;101509.06;4997533;28;20022;-66
2023/01/31 04:50:49;;;;;;;24.93;11.67;;;;;;;3.23;73.08;101509.25;4997144;28;20034;-66
2023/01/31 04:53:15;;;;;;;23.10;11.20;;;;;;;3.27;72.98;101508.59;4996563;28;20109;-66
2023/01/31 04:55:40;;;;;;;24.10;11.07;;;;;;;3.30;72.63;101507.00;4997515;28;20026;-66
2023/01/31 04:58:06;;;;;;;24.63;11.07;;;;;;;3.35;73.06;101509.81;4996215;28;20028;-66
2023/01/31 05:00:31;;;;;;;22.23;10.57;;;;;;;3.39;72.56;101514.34;4997452;28;20117;-66
2023/01/31 05:02:57;;;;;;;24.30;11.20;;;;;;;3.42;72.42;101511.00;4997251;28;20090;-66
2023/01/31 05:05:22;;;;;;;23.13;10.20;;;;;;;3.45;72.49;101513.72;5028636;28;20478;-66
2023/01/31 05:07:48;;;;;;;22.93;10.23;;;;;;;3.48;72.47;101510.34;4997417;28;20065;-66
2023/01/31 05:10:13;;;;;;;22.23;10.23;;;;;;;3.50;72.33;101521.75;4997196;28;20022;-66
2023/01/31 05:12:39;;;;;;;23.70;10.93;;;;;;;3.53;72.76;101525.38;4996165;28;20402;-66
2023/01/31 05:15:09;;;;;;;22.67;11.18;;;;;;;3.56;72.70;101520.31;4997280;28;20033;-66
2023/01/31 05:17:35;;;;;;;23.90;10.80;;;;;;;3.60;72.67;101526.56;4997230;28;20034;-66
2023/01/31 05:20:00;;;;;;;22.75;10.13;;;;;;;3.63;72.44;101526.69;4997024;28;20034;-66
2023/01/31 05:22:26;;;;;;;24.90;10.90;;;;;;;3.67;72.90;101528.59;4997258;28;20026;-66
2023/01/31 05:24:51;;;;;;;22.50;10.57;;;;;;;3.69;72.33;101537.38;4997320;28;20432;-66
2023/01/31 05:27:18;;;;;;;22.07;10.07;;;;;;;3.71;72.78;101546.16;4998042;28;20033;-66
2023/01/31 05:29:44;;;;;;;25.20;10.37;;;;;;;3.73;72.35;101546.22;5032540;28;20261;-66
2023/01/31 05:32:10;;;;;;;22.35;10.57;;;;;;;3.76;72.24;101548.97;5000913;28;20038;-66
2023/01/31 05:34:36;;;;;;;21.20;10.20;;;;;;;3.79;72.50;101550.81;5000831;28;20026;-66
2023/01/31 05:37:02;;;;;;;24.30;10.77;;;;;;;3.80;72.19;101547.41;5001032;28;20026;-66
2023/01/31 05:39:28;;;;;;;23.23;9.93;;;;;;;3.81;72.64;101547.44;5001229;28;20153;-66
2023/01/31 05:41:53;;;;;;;22.08;10.18;;;;;;;3.84;72.71;101546.72;5002543;28;20038;-66
2023/01/31 05:44:20;;;;;;;21.33;10.77;;;;;;;3.86;72.59;101550.25;5000753;28;20026;-66
2023/01/31 05:46:45;;;;;;;21.98;10.13;;;;;;;3.89;72.53;101550.41;4999573;28;20018;-66
2023/01/31 05:49:11;;;;;;;20.67;10.57;;;;;;;3.92;72.89;101545.31;4999356;28;20093;-66
2023/01/31 05:51:37;;;;;;;22.23;10.27;;;;;;;3.91;72.47;101553.97;5000851;28;20027;-65
2023/01/31 05:54:03;;;;;;;21.25;10.07;;;;;;;3.92;72.56;101550.53;5000776;28;20033;-66
2023/01/31 05:56:28;;;;;;;22.57;10.60;;;;;;;3.94;72.35;101548.00;5000853;28;20391;-66
2023/01/31 05:58:54;;;;;;;24.70;10.50;;;;;;;3.95;72.68;101555.88;5032280;28;20097;-66
2023/01/31 06:01:23;;;;;;;24.53;10.83;;;;;;;3.98;72.26;101556.03;5000746;28;20034;-66
2023/01/31 06:03:49;;;;;;;21.88;10.95;;;;;;;3.99;72.25;101552.59;5031430;28;20030;-66
2023/01/31 06:06:14;;;;;;;21.90;10.07;;;;;;;4.00;72.35;101550.88;5000575;28;20406;-66
2023/01/31 06:08:43;;;;;;;20.40;9.93;;;;;;;4.01;72.41;101548.34;5000353;28;20285;-65
2023/01/31 06:11:10;;;;;;;22.30;9.90;;;;;;;4.03;73.02;101540.56;5000233;28;20101;-66
2023/01/31 06:13:37;;;;;;;23.52;10.85;;;;;;;4.06;72.82;101550.25;5000399;28;20035;-66
2023/01/31 06:16:03;;;;;;;20.80;9.73;;;;;;;4.06;72.74;101542.44;5000354;28;20091;-66
2023/01/31 06:18:29;;;;;;;27.63;10.13;;;;;;;4.07;72.89;101549.44;4998695;28;20022;-66
2023/01/31 06:20:54;;;;;;;24.30;9.48;;;;;;;4.07;72.50;101552.91;4999831;28;20041;-66
2023/01/31 06:23:20;;;;;;;21.23;9.97;;;;;;;4.08;72.71;101551.22;5000060;28;20487;-66
2023/01/31 06:25:53;;;;;;;21.20;10.30;;;;;;;4.08;72.25;101557.28;5015263;28;20022;-66
2023/01/31 06:28:19;;;;;;;22.45;10.13;;;;;;;4.10;72.52;101554.78;5000069;28;20030;-66
2023/01/31 06:30:45;;;;;;;21.85;10.10;;;;;;;4.10;72.94;101554.78;4999870;28;20072;-66
2023/01/31 06:33:11;;;;;;;22.20;10.23;;;;;;;4.09;73.05;101560.81;4999727;28;20019;-66
2023/01/31 06:35:37;;;;;;;22.67;10.98;;;;;;;4.08;72.48;101562.50;4999531;28;20109;-66
2023/01/31 06:38:03;;;;;;;24.20;11.33;;;;;;;4.09;72.59;101564.28;4999467;28;20026;-66
2023/01/31 06:40:29;;;;;;;24.95;10.77;;;;;;;4.10;72.75;101566.09;5000162;28;20180;-66
2023/01/31 06:42:55;;;;;;;24.58;11.57;;;;;;;4.12;72.77;101558.34;5015100;28;20073;-65
2023/01/31 06:45:21;;;;;;;24.15;11.52;;;;;;;4.13;72.98;101553.19;4991686;28;20491;-66
2023/01/31 06:47:46;;;;;;;24.70;11.33;;;;;;;4.13;72.74;101552.28;4999478;28;20026;-66
2023/01/31 06:50:12;;;;;;;26.00;11.93;;;;;;;4.14;72.48;101554.97;4999395;28;20054;-66
2023/01/31 06:52:41;;;;;;;24.45;10.65;;;;;;;4.15;72.37;101563.69;4999542;28;20150;-67
2023/01/31 06:55:07;;;;;;;20.15;9.50;;;;;;;4.16;72.82;101562.84;5014677;28;20041;-68
2023/01/31 06:57:33;;;;;;;25.08;11.30;;;;;;;4.16;72.99;101561.16;4999414;28;20134;-67
2023/01/31 06:59:58;;;;;;;23.73;10.80;;;;;;;4.21;72.95;101563.06;4999589;28;20038;-68
2023/01/31 07:02:24;;;;;;;23.20;10.87;;;;;;;4.21;72.66;101558.72;4999247;28;20080;-69
2023/01/31 07:04:50;;;;;;;23.97;10.90;;;;;;;4.23;72.63;101561.41;5030615;28;20038;-70
2023/01/31 07:07:15;;;;;;;28.73;11.73;;;;;;;4.24;72.88;101566.69;4999236;28;20057;-69
2023/01/31 07:09:41;;;;;;;24.40;11.77;;;;;;;4.25;72.67;101554.53;4999196;28;20101;-69
2023/01/31 07:12:06;;;;;;;22.87;11.63;;;;;;;4.24;72.42;101566.69;4999186;28;20268;-69
2023/01/31 07:14:32;;;;;;;28.53;11.33;;;;;;;4.25;72.85;101576.31;4999153;28;20023;-69
2023/01/31 07:16:57;;;;;;;25.63;11.93;;;;;;;4.25;72.59;101580.63;4999077;28;20505;-69
2023/01/31 07:19:22;;;;;;;25.13;11.48;;;;;;;4.25;72.56;101575.41;4998901;28;20049;-69
2023/01/31 07:21:48;;;;;;;25.87;12.00;;;;;;;4.26;72.55;101588.50;4998695;28;20022;-69
2023/01/31 07:24:14;;;;;;;25.53;12.27;;;;;;;4.27;72.58;101584.16;5008696;28;20023;-70
2023/01/31 07:26:40;;;;;;;28.55;12.13;;;;;;;4.29;72.63;101585.13;4996372;28;20522;-69
2023/01/31 07:29:05;;;;;;;26.43;12.00;;;;;;;4.29;72.89;101587.72;4998254;28;20431;-69
2023/01/31 07:31:31;;;;;;;26.83;12.20;;;;;;;4.31;72.59;101587.00;4998530;28;20026;-69
2023/01/31 07:33:56;;;;;;;25.10;11.13;;;;;;;4.31;72.76;101587.00;4998356;28;20460;-68
2023/01/31 07:36:25;;;;;;;23.93;11.63;;;;;;;4.31;72.59;101584.38;4997681;28;20026;-67
2023/01/31 07:38:55;;;;;;;26.25;11.70;;;;;;;4.30;72.44;101580.00;4996525;28;20022;-67
2023/01/31 07:41:21;;;;;;;24.88;11.52;;;;;;;4.30;72.64;101585.22;4999517;28;20039;-67
2023/01/31 07:43:47;;;;;;;25.65;12.13;;;;;;;4.32;72.56;101590.47;4998657;28;20058;-67
2023/01/31 07:46:12;;;;;;;26.77;12.83;;;;;;;4.36;72.22;101581.06;4998510;28;20114;-67
2023/01/31 07:48:38;;;;;;;24.73;11.83;;;;;;;4.41;72.16;101585.66;4995860;28;20026;-66
2023/01/31 07:51:04;;;;;;;26.02;11.20;;;;;;;4.48;72.32;101598.97;4996683;28;20046;-67
2023/01/31 07:53:32;;;;;;;21.30;10.03;;;;;;;4.56;72.47;101598.47;4996848;28;20026;-67
2023/01/31 07:56:09;;;;;;;26.70;11.02;;;;;;;4.65;71.19;101597.06;4998371;28;20440;-67
2023/01/31 07:58:36;;;;;;;21.08;10.20;;;;;;;4.78;72.02;101608.91;4998171;28;20029;-67
2023/01/31 08:03:45;;;;;;;26.63;14.90;;;;;;;4.92;71.86;101610.38;4997755;28;20046;-67
2023/01/31 08:06:12;;;;;;;29.93;14.13;;;;;;;4.96;71.79;101604.44;4998346;28;20034;-67
2023/01/31 08:08:38;;;;;;;30.00;13.52;;;;;;;5.01;71.48;101612.47;4998015;28;20046;-67
2023/01/31 08:11:04;;;;;;;25.03;12.37;;;;;;;5.06;71.77;101604.78;4997975;28;20030;-66
2023/01/31 08:13:34;;;;;;;28.15;12.23;;;;;;;5.12;71.82;101625.97;4998055;28;20516;-67
2023/01/31 08:16:00;;;;;;;23.60;11.13;;;;;;;5.20;71.50;101626.28;4998305;28;20540;-67
2023/01/31 08:18:25;;;;;;;19.35;10.05;;;;;;;5.27;71.50;101625.69;4997799;28;20026;-67
2023/01/31 08:20:51;;;;;;;22.50;10.23;;;;;;;5.33;71.31;101620.69;4997790;28;20037;-67
2023/01/31 08:23:16;;;;;;;21.50;10.07;;;;;;;5.43;71.21;101622.84;4998065;28;20062;-67
2023/01/31 08:25:42;;;;;;;20.27;9.33;;;;;;;5.51;71.09;101630.97;4996857;28;20030;-67
2023/01/31 08:28:08;;;;;;;21.63;9.77;;;;;;;5.63;70.78;101619.22;4997875;28;20030;-66
2023/01/31 08:30:33;;;;;;;21.90;10.07;;;;;;;5.76;71.06;101631.91;4997772;28;20269;-67
2023/01/31 08:32:59;;;;;;;22.20;9.83;;;;;;;5.92;71.13;101628.16;4997617;28;20034;-66
2023/01/31 08:35:25;;;;;;;19.48;9.95;;;;;;;6.11;70.68;101628.84;4997480;28;20027;-67
2023/01/31 08:37:51;;;;;;;19.75;10.70;;;;;;;6.36;70.30;101622.78;4997754;28;20030;-67
2023/01/31 08:40:16;;;;;;;25.30;11.23;;;;;;;6.66;70.50;101623.78;4997943;28;20037;-67
2023/01/31 08:42:42;;;;;;;23.90;10.90;;;;;;;6.92;69.97;101621.16;4998582;28;20072;-64
2023/01/31 08:45:08;;;;;;;22.67;10.43;;;;;;;7.06;69.41;101627.72;5019772;28;20030;-64
2023/01/31 08:47:33;;;;;;;25.60;11.45;;;;;;;7.17;68.79;101623.72;4993657;28;20120;-64
2023/01/31 08:49:58;;;;;;;25.07;11.37;;;;;;;7.26;69.13;101622.22;4997338;28;20046;-64
2023/01/31 08:52:24;;;;;;;24.50;10.90;;;;;;;7.26;68.84;101632.72;4997474;28;20030;-64
2023/01/31 08:54:49;;;;;;;27.37;11.07;;;;;;;7.25;68.19;101630.94;4997574;28;20057;-64
2023/01/31 08:57:15;;;;;;;24.65;10.65;;;;;;;7.23;68.68;101633.50;4997392;28;20740;-67
2023/01/31 08:59:40;;;;;;;20.23;9.47;;;;;;;7.27;68.34;101631.88;4997447;28;20085;-66
2023/01/31 09:02:06;;;;;;;24.83;10.57;;;;;;;7.36;68.16;101623.41;5012269;28;20037;-66
2023/01/31 09:04:31;;;;;;;22.70;10.95;;;;;;;7.44;68.33;101638.53;4997302;28;20038;-66
2023/01/31 09:06:57;;;;;;;23.60;10.40;;;;;;;7.49;67.64;101637.78;4997292;28;20030;-66
2023/01/31 09:09:24;;;;;;;21.30;10.30;;;;;;;7.51;67.86;101642.25;4997185;28;20054;-65
2023/01/31 09:11:50;;;;;;;20.92;9.13;;;;;;;7.52;67.56;101640.50;4997224;28;20483;-66
2023/01/31 09:14:15;;;;;;;21.30;10.17;;;;;;;7.56;67.76;101638.03;5007140;28;20041;-66
2023/01/31 09:16:41;;;;;;;23.23;9.87;;;;;;;7.67;67.40;101654.09;5004637;28;20273;-66
2023/01/31 09:19:06;;;;;;;21.43;9.97;;;;;;;7.83;67.89;101655.44;5012111;28;20080;-66
2023/01/31 09:21:32;;;;;;;21.47;9.70;;;;;;;8.06;67.65;101655.22;5003039;28;20072;-66
2023/01/31 09:24:01;;;;;;;21.85;9.90;;;;;;;8.35;66.79;101647.25;4997430;28;20026;-66
2023/01/31 09:26:26;;;;;;;18.53;9.33;;;;;;;8.65;66.01;101643.72;4997236;28;20023;-66
2023/01/31 09:28:52;;;;;;;21.67;9.88;;;;;;;9.50;65.08;101639.63;4997197;28;20030;-66
2023/01/31 09:31:20;;;;;;;19.47;10.40;;;;;;;10.36;64.95;101622.97;4996802;28;20030;-66
2023/01/31 09:33:45;;;;;;;21.98;10.80;;;;;;;10.77;64.15;101622.84;4996072;28;20090;-66
2023/01/31 09:36:13;;;;;;;24.85;10.43;;;;;;;10.78;62.98;101627.25;4997137;28;20124;-66
2023/01/31 09:38:39;;;;;;;19.70;9.95;;;;;;;10.57;62.45;101627.75;4997191;28;20022;-67
2023/01/31 09:41:32;;;;;;;21.23;9.80;;;;;;;10.30;61.68;101624.63;4993893;28;20054;-64
2023/01/31 09:44:02;;;;;;;20.25;9.57;;;;;;;10.28;63.11;101621.06;5004860;28;20031;-65
2023/01/31 09:46:34;;;;;;;19.77;9.60;;;;;;;10.39;63.34;101613.38;4990466;28;20037;-67
2023/01/31 09:49:04;;;;;;;21.08;9.20;;;;;;;10.81;63.03;101622.03;4988155;28;20022;-64
2023/01/31 09:51:32;;;;;;;18.60;8.30;;;;;;;11.92;62.36;101612.19;4996878;28;20506;-65
2023/01/31 09:53:59;;;;;;;16.47;7.63;;;;;;;12.78;61.47;101605.16;4997149;28;20475;-65
2023/01/31 09:56:41;;;;;;;16.60;7.90;;;;;;;13.26;58.57;101604.63;4997000;28;20029;-65
2023/01/31 09:59:29;;;;;;;16.85;8.23;;;;;;;13.61;57.07;101604.88;4996860;28;20038;-66
2023/01/31 10:02:26;;;;;;;22.27;8.38;;;;;;;14.98;54.15;101604.28;4996958;28;20027;-65
2023/01/31 10:05:02;;;;;;;15.93;8.05;;;;;;;15.09;57.99;101599.88;4990273;28;20042;-65
2023/01/31 10:07:31;;;;;;;13.17;7.43;;;;;;;14.85;56.96;101603.41;4990854;28;20048;-66
2023/01/31 10:10:15;;;;;;;14.15;7.85;;;;;;;14.83;55.43;101592.81;4989167;28;20058;-66
2023/01/31 10:12:52;;;;;;;15.45;7.85;;;;;;;14.73;55.78;101601.66;4996888;28;20025;-65
2023/01/31 10:15:40;;;;;;;13.93;7.38;;;;;;;14.53;55.94;101597.19;5000142;28;20027;-65
2023/01/31 10:18:29;;;;;;;14.18;7.43;;;;;;;14.42;56.48;101593.66;4998307;28;20033;-66
2023/01/31 10:21:00;;;;;;;17.17;7.47;;;;;;;14.64;56.65;101598.09;4998319;28;20058;-66
2023/01/31 10:23:37;;;;;;;15.50;6.90;;;;;;;14.85;55.82;101593.69;4998758;28;20030;-66
2023/01/31 10:26:08;;;;;;;14.63;7.20;;;;;;;15.71;55.93;101586.41;4997175;28;20090;-66
2023/01/31 10:28:59;;;;;;;12.25;6.25;;;;;;;16.03;54.76;101588.06;4998727;28;20028;-66
2023/01/31 10:31:34;;;;;;;11.00;5.55;;;;;;;16.17;53.98;101579.13;4996754;28;20022;-66
2023/01/31 10:34:16;;;;;;;11.97;5.80;;;;;;;15.98;52.62;101581.88;4996286;28;20057;-66
2023/01/31 10:36:41;;;;;;;11.10;5.55;;;;;;;15.80;55.68;101577.53;4996806;28;20028;-66
2023/01/31 10:39:32;;;;;;;10.17;5.20;;;;;;;15.54;53.89;101578.53;4999452;28;20086;-66
2023/01/31 10:42:04;;;;;;;11.65;5.80;;;;;;;16.27;53.92;101575.50;4992548;28;20022;-67
2023/01/31 10:44:50;;;;;;;9.68;5.43;;;;;;;16.81;52.55;101568.00;4999550;28;20050;-66
2023/01/31 10:47:18;;;;;;;10.43;5.32;;;;;;;17.55;54.34;101566.38;4993989;28;21990;-67
2023/01/31 10:49:49;;;;;;;11.53;5.83;;;;;;;17.66;52.57;101561.78;4994403;28;20515;-66
2023/01/31 10:52:28;;;;;;;10.50;5.32;;;;;;;17.59;53.38;101562.78;4999084;28;20084;-68
2023/01/31 10:55:03;;;;;;;11.35;5.60;;;;;;;17.48;49.43;101557.59;4987658;28;20034;-67
2023/01/31 10:57:29;;;;;;;9.88;5.55;;;;;;;18.40;51.25;101553.66;4993894;28;20034;-65
2023/01/31 10:59:55;;;;;;;10.85;5.78;;;;;;;19.12;50.80;101540.88;4999315;28;20151;-68
2023/01/31 11:02:26;;;;;;;14.37;6.47;;;;;;;20.72;48.52;101531.06;5013787;28;20161;-70
2023/01/31 11:04:55;;;;;;;11.20;5.95;;;;;;;22.36;47.68;101515.56;4994019;28;20031;-69
2023/01/31 11:07:21;;;;;;;9.38;5.40;;;;;;;23.51;46.02;101516.00;4999214;28;20034;-67
2023/01/31 11:09:53;;;;;;;10.95;5.93;;;;;;;24.48;42.81;101500.47;4990257;28;20035;-67
2023/01/31 11:12:20;;;;;;;8.20;4.90;;;;;;;24.52;44.15;101496.69;4993642;28;20033;-67
2023/01/31 11:15:05;;;;;;;7.88;4.60;;;;;;;23.96;40.72;101498.09;4989983;28;20067;-66
2023/01/31 11:17:34;;;;;;;7.53;4.20;;;;;;;24.17;44.05;101490.13;4995886;28;20023;-66
2023/01/31 11:20:03;;;;;;;7.60;4.10;;;;;;;23.43;45.11;101486.72;4998653;28;20022;-66
2023/01/31 11:22:31;;;;;;;9.10;3.65;;;;;;;22.83;45.31;101480.88;4991606;28;20109;-67
2023/01/31 11:25:00;;;;;;;8.07;4.63;;;;;;;22.67;45.74;101483.22;4997639;28;20030;-67
2023/01/31 11:27:32;;;;;;;6.70;3.65;;;;;;;22.33;46.09;101486.13;4998578;28;20034;-64
2023/01/31 11:29:58;;;;;;;6.75;2.60;;;;;;;21.72;47.68;101476.47;4998605;28;20022;-64
2023/01/31 11:32:29;;;;;;;5.38;2.28;;;;;;;21.23;47.31;101484.19;4998122;28;20022;-65
2023/01/31 11:35:04;;;;;;;4.95;2.25;;;;;;;20.70;47.70;101480.25;4999437;28;20026;-66
2023/01/31 11:37:31;;;;;;;4.30;1.77;;;;;;;20.49;49.97;101476.34;4998415;28;20046;-67